This is the latest recevied weather packets stored in our database for station/object K7CTM. If no packets are shown the sender has not sent any weather packets the latest 1 day(s).
| Time | Temp. | Humidity | Pressure | Rain* | Wind** | Luminosity | Snow |
|---|---|---|---|---|---|---|---|
| 1778052097 | -0.56° C | 65% | 1028.7 hPa | 0 mm | - | 0 W/m² | - |
| 1778051794 | -0.56° C | 65% | 1028.9 hPa | 0 mm | - | 0 W/m² | - |
| 1778051492 | -0.56° C | 65% | 1028.8 hPa | 0 mm | - | 0 W/m² | - |
| 1778050584 | 0° C | 61% | 1028.9 hPa | 0 mm | - | 0 W/m² | - |
| 1778049977 | 0° C | 63% | 1029 hPa | 0 mm | - | 0 W/m² | - |
| 1778049371 | 1.11° C | 58% | 1028.9 hPa | 0 mm | - | 0 W/m² | - |
| 1778049068 | 1.11° C | 58% | 1028.9 hPa | 0 mm | - | 0 W/m² | - |
| 1778048463 | 1.11° C | 56% | 1029 hPa | 0 mm | - | 0 W/m² | - |
| 1778047555 | 0.56° C | 56% | 1029 hPa | 0 mm | - | 0 W/m² | - |
| 1778046949 | 1.11° C | 55% | 1029 hPa | 0 mm | - | 0 W/m² | - |
| 1778046342 | 1.11° C | 55% | 1029 hPa | 0 mm | - | 0 W/m² | - |
| 1778046038 | 1.11° C | 55% | 1028.9 hPa | 0 mm | - | 0 W/m² | - |
| 1778044830 | 0.56° C | 57% | 1029 hPa | 0 mm | - | 0 W/m² | - |
| 1778043619 | 1.11° C | 55% | 1029 hPa | 0 mm | - | 0 W/m² | - |
| 1778043315 | 1.67° C | 55% | 1029 hPa | 0 mm | - | 0 W/m² | - |
| 1778043012 | 1.67° C | 54% | 1028.9 hPa | 0 mm | - | 0 W/m² | - |
| 1778042710 | 2.22° C | 52% | 1028.9 hPa | 0 mm | - | 0 W/m² | - |
| 1778041501 | 3.89° C | 45% | 1029 hPa | 0 mm | - | 0 W/m² | - |
| 1778041198 | 3.89° C | 45% | 1028.9 hPa | 0 mm | - | 0 W/m² | - |
| 1778040896 | 3.89° C | 45% | 1028.9 hPa | 0 mm | - | 0 W/m² | - |
| 1778040593 | 3.89° C | 46% | 1028.9 hPa | 0 mm | - | 0 W/m² | - |
| 1778040291 | 3.89° C | 46% | 1028.9 hPa | 0 mm | - | 0 W/m² | - |
| 1778039380 | 3.89° C | 46% | 1028.9 hPa | 0 mm | - | 0 W/m² | - |
| 1778039078 | 3.89° C | 46% | 1028.8 hPa | 0 mm | - | 0 W/m² | - |
| 1778038775 | 3.89° C | 46% | 1029 hPa | 0 mm | - | 0 W/m² | - |
* Rain latest hour (hover to see other rain measurements)
** Current wind speed in m/s (hover to see current wind gust speed)